sensor_id;sensor_type;location;lat;lon;timestamp;pressure;altitude;pressure_sealevel;temperature;humidity
68107;BME280;54892;47.488;19.026;2023-02-28T00:00:04;101062.81;;;1.46;53.25
68107;BME280;54892;47.488;19.026;2023-02-28T00:03:11;101063.41;;;1.57;52.92
68107;BME280;54892;47.488;19.026;2023-02-28T00:06:15;101071.44;;;1.47;53.14
68107;BME280;54892;47.488;19.026;2023-02-28T00:09:19;101073.03;;;1.48;53.43
68107;BME280;54892;47.488;19.026;2023-02-28T00:12:22;101074.66;;;1.49;53.43
68107;BME280;54892;47.488;19.026;2023-02-28T00:15:26;101079.38;;;1.54;53.46
68107;BME280;54892;47.488;19.026;2023-02-28T00:18:30;101085.88;;;1.58;53.32
68107;BME280;54892;47.488;19.026;2023-02-28T00:21:33;101093.53;;;1.51;53.06
68107;BME280;54892;47.488;19.026;2023-02-28T00:24:38;101083.12;;;1.43;53.28
68107;BME280;54892;47.488;19.026;2023-02-28T00:27:42;101091.06;;;1.49;53.34
68107;BME280;54892;47.488;19.026;2023-02-28T00:30:45;101091.72;;;1.60;53.36
68107;BME280;54892;47.488;19.026;2023-02-28T00:33:54;101090.59;;;1.46;53.10
68107;BME280;54892;47.488;19.026;2023-02-28T00:36:59;101093.19;;;1.54;52.95
68107;BME280;54892;47.488;19.026;2023-02-28T00:40:04;101091.88;;;1.58;52.82
68107;BME280;54892;47.488;19.026;2023-02-28T00:43:08;101100.97;;;1.62;52.80
68107;BME280;54892;47.488;19.026;2023-02-28T00:46:11;101099.03;;;1.56;52.75
68107;BME280;54892;47.488;19.026;2023-02-28T00:49:15;101098.37;;;1.62;52.68
68107;BME280;54892;47.488;19.026;2023-02-28T00:52:18;101103.56;;;1.71;52.65
68107;BME280;54892;47.488;19.026;2023-02-28T00:55:23;101108.06;;;1.77;52.51
68107;BME280;54892;47.488;19.026;2023-02-28T00:58:26;101097.53;;;1.70;52.11
68107;BME280;54892;47.488;19.026;2023-02-28T01:01:29;101109.56;;;1.71;52.37
68107;BME280;54892;47.488;19.026;2023-02-28T01:04:33;101103.19;;;1.74;52.53
68107;BME280;54892;47.488;19.026;2023-02-28T01:07:38;101103.69;;;1.77;52.58
68107;BME280;54892;47.488;19.026;2023-02-28T01:10:43;101103.81;;;1.84;52.30
68107;BME280;54892;47.488;19.026;2023-02-28T01:13:46;101099.09;;;1.79;52.42
68107;BME280;54892;47.488;19.026;2023-02-28T01:16:52;101102.19;;;1.83;52.13
68107;BME280;54892;47.488;19.026;2023-02-28T01:19:55;101105.16;;;1.72;52.25
68107;BME280;54892;47.488;19.026;2023-02-28T01:22:59;101108.06;;;1.77;52.24
68107;BME280;54892;47.488;19.026;2023-02-28T01:26:05;101105.78;;;1.82;52.27
68107;BME280;54892;47.488;19.026;2023-02-28T01:29:08;101106.44;;;1.76;52.32
68107;BME280;54892;47.488;19.026;2023-02-28T01:32:11;101110.53;;;1.78;52.26
68107;BME280;54892;47.488;19.026;2023-02-28T01:35:14;101102.53;;;1.80;52.24
68107;BME280;54892;47.488;19.026;2023-02-28T01:38:17;101101.41;;;1.74;52.34
68107;BME280;54892;47.488;19.026;2023-02-28T01:41:25;101113.91;;;1.79;52.15
68107;BME280;54892;47.488;19.026;2023-02-28T01:47:52;101105.16;;;1.72;52.62
68107;BME280;54892;47.488;19.026;2023-02-28T01:50:58;101101.78;;;1.63;52.86
68107;BME280;54892;47.488;19.026;2023-02-28T01:54:03;101099.31;;;1.70;53.05
68107;BME280;54892;47.488;19.026;2023-02-28T01:57:11;101099.94;;;1.80;53.16
68107;BME280;54892;47.488;19.026;2023-02-28T02:00:16;101103.84;;;1.76;53.26
68107;BME280;54892;47.488;19.026;2023-02-28T02:03:20;101096.03;;;1.76;53.54
68107;BME280;54892;47.488;19.026;2023-02-28T02:06:24;101097.97;;;1.82;53.45
68107;BME280;54892;47.488;19.026;2023-02-28T02:09:29;101094.28;;;1.68;53.87
68107;BME280;54892;47.488;19.026;2023-02-28T02:12:36;101097.72;;;1.60;52.82
68107;BME280;54892;47.488;19.026;2023-02-28T02:15:44;101095.28;;;1.59;52.70
68107;BME280;54892;47.488;19.026;2023-02-28T02:18:52;101094.50;;;1.50;52.73
68107;BME280;54892;47.488;19.026;2023-02-28T02:22:01;101098.09;;;1.49;52.87
68107;BME280;54892;47.488;19.026;2023-02-28T02:25:14;101095.81;;;1.46;53.31
68107;BME280;54892;47.488;19.026;2023-02-28T02:28:39;101092.41;;;1.37;52.91
68107;BME280;54892;47.488;19.026;2023-02-28T02:31:53;101098.78;;;1.34;53.81
68107;BME280;54892;47.488;19.026;2023-02-28T02:35:01;101090.84;;;1.28;53.41
68107;BME280;54892;47.488;19.026;2023-02-28T02:38:09;101099.25;;;1.38;53.75
68107;BME280;54892;47.488;19.026;2023-02-28T02:41:16;101096.84;;;1.28;53.58
68107;BME280;54892;47.488;19.026;2023-02-28T02:44:22;101098.50;;;1.21;54.01
68107;BME280;54892;47.488;19.026;2023-02-28T02:47:28;101088.53;;;1.33;53.94
68107;BME280;54892;47.488;19.026;2023-02-28T02:50:35;101099.13;;;1.23;54.14
68107;BME280;54892;47.488;19.026;2023-02-28T02:53:42;101098.13;;;1.32;54.11
68107;BME280;54892;47.488;19.026;2023-02-28T02:56:47;101096.03;;;1.28;53.79
68107;BME280;54892;47.488;19.026;2023-02-28T02:59:51;101093.28;;;1.21;54.04
68107;BME280;54892;47.488;19.026;2023-02-28T03:03:00;101098.50;;;1.21;54.01
68107;BME280;54892;47.488;19.026;2023-02-28T03:06:05;101090.66;;;1.29;53.84
68107;BME280;54892;47.488;19.026;2023-02-28T03:09:09;101105.97;;;1.24;53.86
68107;BME280;54892;47.488;19.026;2023-02-28T03:12:12;101107.56;;;1.33;53.87
68107;BME280;54892;47.488;19.026;2023-02-28T03:15:17;101109.34;;;1.25;53.89
68107;BME280;54892;47.488;19.026;2023-02-28T03:18:24;101104.63;;;1.28;53.97
68107;BME280;54892;47.488;19.026;2023-02-28T03:21:31;101108.72;;;1.23;54.22
68107;BME280;54892;47.488;19.026;2023-02-28T03:24:38;101109.34;;;1.25;54.58
68107;BME280;54892;47.488;19.026;2023-02-28T03:27:45;101103.38;;;1.24;54.20
68107;BME280;54892;47.488;19.026;2023-02-28T03:30:52;101102.88;;;1.12;54.46
68107;BME280;54892;47.488;19.026;2023-02-28T03:33:59;101107.56;;;1.25;54.25
68107;BME280;54892;47.488;19.026;2023-02-28T03:37:06;101109.88;;;1.20;54.45
68107;BME280;54892;47.488;19.026;2023-02-28T03:40:13;101104.50;;;1.05;54.38
68107;BME280;54892;47.488;19.026;2023-02-28T03:43:20;101108.25;;;1.02;55.04
68107;BME280;54892;47.488;19.026;2023-02-28T03:46:26;101108.09;;;1.04;54.91
68107;BME280;54892;47.488;19.026;2023-02-28T03:49:30;101102.72;;;1.14;54.69
68107;BME280;54892;47.488;19.026;2023-02-28T03:52:39;101109.53;;;1.15;54.59
68107;BME280;54892;47.488;19.026;2023-02-28T03:55:47;101114.59;;;1.16;54.50
68107;BME280;54892;47.488;19.026;2023-02-28T03:58:53;101110.00;;;1.18;54.09
68107;BME280;54892;47.488;19.026;2023-02-28T04:01:58;101111.31;;;1.23;54.28
68107;BME280;54892;47.488;19.026;2023-02-28T04:05:02;101109.53;;;1.15;54.22
68107;BME280;54892;47.488;19.026;2023-02-28T04:08:07;101102.84;;;1.20;54.12
68107;BME280;54892;47.488;19.026;2023-02-28T04:11:14;101105.97;;;1.24;54.17
68107;BME280;54892;47.488;19.026;2023-02-28T04:14:19;101093.59;;;1.18;54.39
68107;BME280;54892;47.488;19.026;2023-02-28T04:17:25;101095.72;;;1.23;54.63
68107;BME280;54892;47.488;19.026;2023-02-28T04:20:28;101102.06;;;1.20;54.99
68107;BME280;54892;47.488;19.026;2023-02-28T04:23:34;101100.41;;;1.27;55.02
68107;BME280;54892;47.488;19.026;2023-02-28T04:26:37;101097.16;;;1.33;54.45
68107;BME280;54892;47.488;19.026;2023-02-28T04:29:40;101093.09;;;1.31;54.48
68107;BME280;54892;47.488;19.026;2023-02-28T04:32:46;101094.41;;;1.18;54.75
68107;BME280;54892;47.488;19.026;2023-02-28T04:35:57;101099.97;;;1.15;54.95
68107;BME280;54892;47.488;19.026;2023-02-28T04:39:02;101092.78;;;1.26;54.95
68107;BME280;54892;47.488;19.026;2023-02-28T04:42:05;101092.47;;;1.20;55.05
68107;BME280;54892;47.488;19.026;2023-02-28T04:45:09;101097.50;;;1.22;54.77
68107;BME280;54892;47.488;19.026;2023-02-28T04:48:13;101095.56;;;1.24;55.15
68107;BME280;54892;47.488;19.026;2023-02-28T04:51:17;101094.09;;;1.21;54.91
68107;BME280;54892;47.488;19.026;2023-02-28T04:54:22;101103.03;;;1.19;55.00
68107;BME280;54892;47.488;19.026;2023-02-28T04:57:26;101092.31;;;1.22;54.85
68107;BME280;54892;47.488;19.026;2023-02-28T05:00:29;101093.28;;;1.21;54.82
68107;BME280;54892;47.488;19.026;2023-02-28T05:03:33;101094.56;;;1.25;55.01
68107;BME280;54892;47.488;19.026;2023-02-28T05:06:36;101089.16;;;1.35;54.88
68107;BME280;54892;47.488;19.026;2023-02-28T05:09:40;101095.84;;;1.29;54.74
68107;BME280;54892;47.488;19.026;2023-02-28T05:12:43;101095.84;;;1.29;54.31
68107;BME280;54892;47.488;19.026;2023-02-28T05:15:46;101100.41;;;1.35;54.37
68107;BME280;54892;47.488;19.026;2023-02-28T05:18:50;101096.03;;;1.28;54.86
68107;BME280;54892;47.488;19.026;2023-02-28T05:21:57;101097.47;;;1.30;54.52
68107;BME280;54892;47.488;19.026;2023-02-28T05:25:02;101101.22;;;1.28;55.05
68107;BME280;54892;47.488;19.026;2023-02-28T05:28:06;101096.00;;;1.36;54.92
68107;BME280;54892;47.488;19.026;2023-02-28T05:31:10;101101.56;;;1.25;55.04
68107;BME280;54892;47.488;19.026;2023-02-28T05:34:13;101099.44;;;1.28;55.17
68107;BME280;54892;47.488;19.026;2023-02-28T05:37:17;101104.63;;;1.36;55.15
68107;BME280;54892;47.488;19.026;2023-02-28T05:40:23;101105.28;;;1.39;55.40
68107;BME280;54892;47.488;19.026;2023-02-28T05:43:26;101110.78;;;1.44;55.04
68107;BME280;54892;47.488;19.026;2023-02-28T05:46:30;101116.94;;;1.43;55.00
68107;BME280;54892;47.488;19.026;2023-02-28T05:49:33;101116.81;;;1.44;54.82
68107;BME280;54892;47.488;19.026;2023-02-28T05:52:37;101113.69;;;1.49;54.73
68107;BME280;54892;47.488;19.026;2023-02-28T05:55:41;101124.75;;;1.43;54.63
68107;BME280;54892;47.488;19.026;2023-02-28T05:58:45;101120.56;;;1.33;54.89
68107;BME280;54892;47.488;19.026;2023-02-28T06:01:48;101133.56;;;1.33;55.00
68107;BME280;54892;47.488;19.026;2023-02-28T06:04:51;101127.69;;;1.48;54.67
68107;BME280;54892;47.488;19.026;2023-02-28T06:07:54;101127.88;;;1.46;54.49
68107;BME280;54892;47.488;19.026;2023-02-28T06:10:59;101122.44;;;1.56;53.72
68107;BME280;54892;47.488;19.026;2023-02-28T06:14:05;101126.38;;;1.44;53.51
68107;BME280;54892;47.488;19.026;2023-02-28T06:17:08;101128.47;;;1.48;53.62
68107;BME280;54892;47.488;19.026;2023-02-28T06:20:12;101130.91;;;1.58;53.64
68107;BME280;54892;47.488;19.026;2023-02-28T06:23:15;101128.97;;;1.52;54.10
68107;BME280;54892;47.488;19.026;2023-02-28T06:26:19;101130.94;;;1.50;54.64
68107;BME280;54892;47.488;19.026;2023-02-28T06:29:23;101138.87;;;1.48;54.80
68107;BME280;54892;47.488;19.026;2023-02-28T06:32:26;101138.56;;;1.51;54.52
68107;BME280;54892;47.488;19.026;2023-02-28T06:35:32;101144.91;;;1.49;54.55
68107;BME280;54892;47.488;19.026;2023-02-28T06:38:35;101146.22;;;1.53;54.22
68107;BME280;54892;47.488;19.026;2023-02-28T06:41:40;101144.88;;;1.57;53.84
68107;BME280;54892;47.488;19.026;2023-02-28T06:44:55;101143.59;;;1.61;53.44
68107;BME280;54892;47.488;19.026;2023-02-28T06:51:21;101160.97;;;1.69;52.90
68107;BME280;54892;47.488;19.026;2023-02-28T06:54:26;101160.00;;;1.70;52.77
68107;BME280;54892;47.488;19.026;2023-02-28T06:57:30;101155.53;;;1.87;52.58
68107;BME280;54892;47.488;19.026;2023-02-28T07:00:35;101157.28;;;2.03;52.53
68107;BME280;54892;47.488;19.026;2023-02-28T07:03:38;101158.19;;;2.19;51.59
68107;BME280;54892;47.488;19.026;2023-02-28T07:06:41;101150.44;;;2.34;51.27
68107;BME280;54892;47.488;19.026;2023-02-28T07:09:44;101149.34;;;2.51;50.38
68107;BME280;54892;47.488;19.026;2023-02-28T07:12:49;101155.22;;;2.53;49.94
68107;BME280;54892;47.488;19.026;2023-02-28T07:15:53;101169.13;;;2.69;49.82
68107;BME280;54892;47.488;19.026;2023-02-28T07:18:56;101174.62;;;2.97;49.61
68107;BME280;54892;47.488;19.026;2023-02-28T07:22:00;101169.00;;;2.85;48.50
68107;BME280;54892;47.488;19.026;2023-02-28T07:25:04;101175.69;;;2.88;49.04
68107;BME280;54892;47.488;19.026;2023-02-28T07:28:09;101184.00;;;3.07;48.93
68107;BME280;54892;47.488;19.026;2023-02-28T07:31:13;101177.13;;;2.91;48.73
68107;BME280;54892;47.488;19.026;2023-02-28T07:34:17;101173.88;;;2.65;49.05
68107;BME280;54892;47.488;19.026;2023-02-28T07:37:21;101180.47;;;2.76;48.78
68107;BME280;54892;47.488;19.026;2023-02-28T07:40:26;101188.25;;;2.84;48.32
68107;BME280;54892;47.488;19.026;2023-02-28T07:43:31;101188.75;;;3.03;47.78
68107;BME280;54892;47.488;19.026;2023-02-28T07:46:34;101186.25;;;3.63;46.68
68107;BME280;54892;47.488;19.026;2023-02-28T07:49:38;101182.06;;;4.29;45.25
68107;BME280;54892;47.488;19.026;2023-02-28T07:52:41;101180.47;;;4.49;44.50
68107;BME280;54892;47.488;19.026;2023-02-28T07:55:46;101181.06;;;5.10;43.23
68107;BME280;54892;47.488;19.026;2023-02-28T07:58:51;101183.03;;;5.08;43.01
68107;BME280;54892;47.488;19.026;2023-02-28T08:01:55;101185.84;;;5.34;42.13
68107;BME280;54892;47.488;19.026;2023-02-28T08:04:59;101187.34;;;5.44;41.44
68107;BME280;54892;47.488;19.026;2023-02-28T08:08:03;101182.50;;;6.18;41.11
68107;BME280;54892;47.488;19.026;2023-02-28T08:11:07;101181.34;;;6.27;39.80
68107;BME280;54892;47.488;19.026;2023-02-28T08:14:11;101180.84;;;6.10;40.72
68107;BME280;54892;47.488;19.026;2023-02-28T08:17:15;101177.47;;;6.16;40.22
68107;BME280;54892;47.488;19.026;2023-02-28T08:20:18;101180.78;;;5.61;41.08
68107;BME280;54892;47.488;19.026;2023-02-28T08:23:22;101185.75;;;4.71;43.06
68107;BME280;54892;47.488;19.026;2023-02-28T08:26:25;101180.38;;;5.01;43.20
68107;BME280;54892;47.488;19.026;2023-02-28T08:29:30;101184.75;;;5.22;42.11
68107;BME280;54892;47.488;19.026;2023-02-28T08:32:33;101179.22;;;5.67;41.76
68107;BME280;54892;47.488;19.026;2023-02-28T08:35:36;101176.69;;;5.81;40.88
68107;BME280;54892;47.488;19.026;2023-02-28T08:38:40;101177.09;;;5.84;40.37
68107;BME280;54892;47.488;19.026;2023-02-28T08:41:44;101176.28;;;5.84;40.16
68107;BME280;54892;47.488;19.026;2023-02-28T08:44:52;101177.94;;;5.56;40.72
68107;BME280;54892;47.488;19.026;2023-02-28T08:47:56;101171.78;;;5.71;40.55
68107;BME280;54892;47.488;19.026;2023-02-28T08:50:59;101180.62;;;5.34;41.73
68107;BME280;54892;47.488;19.026;2023-02-28T08:54:08;101187.91;;;5.11;42.06
68107;BME280;54892;47.488;19.026;2023-02-28T08:57:13;101177.91;;;5.21;42.42
68107;BME280;54892;47.488;19.026;2023-02-28T09:00:19;101179.94;;;4.76;42.84
68107;BME280;54892;47.488;19.026;2023-02-28T09:03:23;101168.91;;;5.02;42.77
68107;BME280;54892;47.488;19.026;2023-02-28T09:06:26;101171.72;;;4.79;43.31
68107;BME280;54892;47.488;19.026;2023-02-28T09:09:30;101184.03;;;4.85;43.45
68107;BME280;54892;47.488;19.026;2023-02-28T09:12:34;101180.00;;;4.82;43.50
68107;BME280;54892;47.488;19.026;2023-02-28T09:15:43;101183.41;;;5.05;43.29
68107;BME280;54892;47.488;19.026;2023-02-28T09:18:47;101190.56;;;4.52;44.20
68107;BME280;54892;47.488;19.026;2023-02-28T09:21:50;101174.22;;;4.65;43.71
68107;BME280;54892;47.488;19.026;2023-02-28T09:24:54;101181.94;;;4.73;43.79
68107;BME280;54892;47.488;19.026;2023-02-28T09:27:57;101177.66;;;4.87;43.47
68107;BME280;54892;47.488;19.026;2023-02-28T09:31:02;101179.69;;;4.92;44.02
68107;BME280;54892;47.488;19.026;2023-02-28T09:34:06;101188.38;;;4.56;44.36
68107;BME280;54892;47.488;19.026;2023-02-28T09:37:09;101188.91;;;4.66;44.73
68107;BME280;54892;47.488;19.026;2023-02-28T09:40:12;101186.84;;;4.83;44.30
68107;BME280;54892;47.488;19.026;2023-02-28T09:43:21;101188.22;;;5.01;44.11
68107;BME280;54892;47.488;19.026;2023-02-28T09:46:29;101185.47;;;5.09;43.85
68107;BME280;54892;47.488;19.026;2023-02-28T09:49:40;101182.66;;;5.11;44.10
68107;BME280;54892;47.488;19.026;2023-02-28T09:52:43;101188.38;;;5.21;43.61
68107;BME280;54892;47.488;19.026;2023-02-28T09:55:51;101186.19;;;5.53;43.14
68107;BME280;54892;47.488;19.026;2023-02-28T09:58:58;101184.41;;;5.03;43.26
68107;BME280;54892;47.488;19.026;2023-02-28T10:02:08;101183.63;;;5.03;43.67
68107;BME280;54892;47.488;19.026;2023-02-28T10:05:15;101174.72;;;4.76;44.14
68107;BME280;54892;47.488;19.026;2023-02-28T10:08:19;101168.38;;;5.13;44.30
68107;BME280;54892;47.488;19.026;2023-02-28T10:11:27;101175.03;;;5.16;43.83
68107;BME280;54892;47.488;19.026;2023-02-28T10:14:32;101175.34;;;5.28;43.78
68107;BME280;54892;47.488;19.026;2023-02-28T10:17:39;101174.34;;;5.29;43.55
68107;BME280;54892;47.488;19.026;2023-02-28T10:20:49;101166.78;;;5.41;43.36
68107;BME280;54892;47.488;19.026;2023-02-28T10:23:56;101170.47;;;5.53;43.51
68107;BME280;54892;47.488;19.026;2023-02-28T10:27:05;101168.53;;;5.69;43.26
68107;BME280;54892;47.488;19.026;2023-02-28T10:30:10;101169.53;;;5.68;43.10
68107;BME280;54892;47.488;19.026;2023-02-28T10:33:23;101166.94;;;5.68;43.14
68107;BME280;54892;47.488;19.026;2023-02-28T10:36:26;101161.25;;;5.57;43.18
68107;BME280;54892;47.488;19.026;2023-02-28T10:39:34;101158.13;;;5.47;43.40
68107;BME280;54892;47.488;19.026;2023-02-28T10:42:37;101151.72;;;5.21;43.83
68107;BME280;54892;47.488;19.026;2023-02-28T10:45:51;101152.31;;;5.16;43.69
68107;BME280;54892;47.488;19.026;2023-02-28T10:49:02;101147.59;;;5.33;43.41
68107;BME280;54892;47.488;19.026;2023-02-28T10:52:07;101138.97;;;5.40;43.77
68107;BME280;54892;47.488;19.026;2023-02-28T10:55:16;101144.28;;;5.53;43.99
68107;BME280;54892;47.488;19.026;2023-02-28T10:58:23;101140.62;;;5.47;44.01
68107;BME280;54892;47.488;19.026;2023-02-28T11:01:35;101132.91;;;5.39;43.74
68107;BME280;54892;47.488;19.026;2023-02-28T11:04:40;101129.94;;;5.14;44.47
68107;BME280;54892;47.488;19.026;2023-02-28T11:07:43;101137.28;;;5.25;44.61
68107;BME280;54892;47.488;19.026;2023-02-28T11:10:54;101135.78;;;5.16;44.55
68107;BME280;54892;47.488;19.026;2023-02-28T11:14:04;101136.19;;;5.13;44.65
68107;BME280;54892;47.488;19.026;2023-02-28T11:17:13;101139.94;;;5.32;44.58
68107;BME280;54892;47.488;19.026;2023-02-28T11:23:23;101132.78;;;5.47;44.98
68107;BME280;54892;47.488;19.026;2023-02-28T11:26:38;101130.94;;;5.48;44.53
68107;BME280;54892;47.488;19.026;2023-02-28T11:29:46;101130.75;;;5.43;44.98
68107;BME280;54892;47.488;19.026;2023-02-28T11:32:50;101128.50;;;5.40;44.87
68107;BME280;54892;47.488;19.026;2023-02-28T11:35:54;101120.50;;;5.55;44.90
68107;BME280;54892;47.488;19.026;2023-02-28T11:39:07;101125.84;;;5.68;44.92
68107;BME280;54892;47.488;19.026;2023-02-28T11:45:42;101127.28;;;5.77;44.65
68107;BME280;54892;47.488;19.026;2023-02-28T11:48:52;101128.50;;;5.75;44.87
68107;BME280;54892;47.488;19.026;2023-02-28T11:51:59;101113.28;;;5.57;45.18
68107;BME280;54892;47.488;19.026;2023-02-28T11:55:09;101117.00;;;5.76;44.70
68107;BME280;54892;47.488;19.026;2023-02-28T11:58:23;101121.22;;;5.77;44.86
68107;BME280;54892;47.488;19.026;2023-02-28T12:01:32;101107.75;;;5.87;44.12
68107;BME280;54892;47.488;19.026;2023-02-28T12:04:42;101107.13;;;5.78;45.27
68107;BME280;54892;47.488;19.026;2023-02-28T12:07:54;101107.56;;;5.82;45.55
68107;BME280;54892;47.488;19.026;2023-02-28T12:11:06;101102.59;;;6.00;45.62
68107;BME280;54892;47.488;19.026;2023-02-28T12:17:41;101106.84;;;6.08;45.70
68107;BME280;54892;47.488;19.026;2023-02-28T12:20:49;101092.34;;;6.05;45.16
68107;BME280;54892;47.488;19.026;2023-02-28T12:24:05;101092.25;;;5.85;45.95
68107;BME280;54892;47.488;19.026;2023-02-28T12:27:17;101090.50;;;5.99;45.90
68107;BME280;54892;47.488;19.026;2023-02-28T12:30:23;101084.69;;;6.04;45.76
68107;BME280;54892;47.488;19.026;2023-02-28T12:33:30;101073.38;;;6.10;44.95
68107;BME280;54892;47.488;19.026;2023-02-28T12:36:36;101073.22;;;6.12;45.87
68107;BME280;54892;47.488;19.026;2023-02-28T12:39:40;101073.63;;;6.29;45.38
68107;BME280;54892;47.488;19.026;2023-02-28T12:42:52;101067.59;;;6.21;44.72
68107;BME280;54892;47.488;19.026;2023-02-28T12:45:57;101071.22;;;6.20;45.31
68107;BME280;54892;47.488;19.026;2023-02-28T12:49:05;101058.72;;;6.22;45.33
68107;BME280;54892;47.488;19.026;2023-02-28T12:52:11;101069.47;;;5.92;46.13
68107;BME280;54892;47.488;19.026;2023-02-28T12:55:20;101056.69;;;6.24;45.45
68107;BME280;54892;47.488;19.026;2023-02-28T12:58:29;101053.59;;;5.94;45.69
68107;BME280;54892;47.488;19.026;2023-02-28T13:05:13;101058.28;;;6.19;45.56
68107;BME280;54892;47.488;19.026;2023-02-28T13:08:47;101055.50;;;6.34;45.68
68107;BME280;54892;47.488;19.026;2023-02-28T13:11:56;101055.09;;;6.37;45.27
68107;BME280;54892;47.488;19.026;2023-02-28T13:15:08;101046.19;;;6.24;45.97
68107;BME280;54892;47.488;19.026;2023-02-28T13:18:26;101052.47;;;6.30;46.44
68107;BME280;54892;47.488;19.026;2023-02-28T13:21:30;101051.63;;;6.16;46.87
68107;BME280;54892;47.488;19.026;2023-02-28T13:24:46;101051.44;;;6.18;46.97
68107;BME280;54892;47.488;19.026;2023-02-28T13:27:50;101043.78;;;6.16;46.84
68107;BME280;54892;47.488;19.026;2023-02-28T13:31:06;101050.66;;;6.44;46.74
68107;BME280;54892;47.488;19.026;2023-02-28T13:34:14;101044.00;;;6.35;47.55
68107;BME280;54892;47.488;19.026;2023-02-28T13:37:35;101034.69;;;6.12;47.36
68107;BME280;54892;47.488;19.026;2023-02-28T13:40:39;101038.53;;;6.09;47.47
68107;BME280;54892;47.488;19.026;2023-02-28T13:47:23;101034.72;;;6.59;47.33
68107;BME280;54892;47.488;19.026;2023-02-28T13:50:28;101026.44;;;6.49;46.82
68107;BME280;54892;47.488;19.026;2023-02-28T13:56:53;101020.78;;;6.45;46.82
68107;BME280;54892;47.488;19.026;2023-02-28T14:00:07;101021.19;;;6.22;47.36
68107;BME280;54892;47.488;19.026;2023-02-28T14:03:35;101013.50;;;6.00;47.92
68107;BME280;54892;47.488;19.026;2023-02-28T14:06:46;101015.34;;;6.33;47.77
68107;BME280;54892;47.488;19.026;2023-02-28T14:09:54;101004.84;;;6.33;47.54
68107;BME280;54892;47.488;19.026;2023-02-28T14:12:59;101009.31;;;6.19;47.51
68107;BME280;54892;47.488;19.026;2023-02-28T14:16:02;101010.31;;;6.18;47.97
68107;BME280;54892;47.488;19.026;2023-02-28T14:19:11;101013.31;;;6.15;47.79
68107;BME280;54892;47.488;19.026;2023-02-28T14:22:18;101011.94;;;6.33;47.84
68107;BME280;54892;47.488;19.026;2023-02-28T14:25:29;101009.47;;;6.11;48.07
68107;BME280;54892;47.488;19.026;2023-02-28T14:28:41;101004.25;;;6.11;48.55
68107;BME280;54892;47.488;19.026;2023-02-28T14:31:45;101007.69;;;6.18;47.84
68107;BME280;54892;47.488;19.026;2023-02-28T14:34:58;101004.47;;;6.30;47.60
68107;BME280;54892;47.488;19.026;2023-02-28T14:38:05;101000.44;;;6.34;47.54
68107;BME280;54892;47.488;19.026;2023-02-28T14:41:15;100998.38;;;6.09;48.43
68107;BME280;54892;47.488;19.026;2023-02-28T14:44:23;100989.94;;;6.34;47.97
68107;BME280;54892;47.488;19.026;2023-02-28T14:47:27;100995.53;;;5.97;48.62
68107;BME280;54892;47.488;19.026;2023-02-28T14:50:34;100996.56;;;6.03;48.64
68107;BME280;54892;47.488;19.026;2023-02-28T14:53:37;100997.97;;;6.05;48.46
68107;BME280;54892;47.488;19.026;2023-02-28T14:56:41;100996.19;;;6.06;48.38
68107;BME280;54892;47.488;19.026;2023-02-28T14:59:44;101003.41;;;5.97;48.44
68107;BME280;54892;47.488;19.026;2023-02-28T15:02:47;101004.84;;;6.13;48.00
68107;BME280;54892;47.488;19.026;2023-02-28T15:05:53;101000.78;;;5.90;48.52
68107;BME280;54892;47.488;19.026;2023-02-28T15:09:14;101006.19;;;5.95;48.57
68107;BME280;54892;47.488;19.026;2023-02-28T15:12:18;101005.00;;;5.98;48.98
68107;BME280;54892;47.488;19.026;2023-02-28T15:15:22;101001.44;;;6.13;48.27
68107;BME280;54892;47.488;19.026;2023-02-28T15:18:30;101007.19;;;5.88;48.97
68107;BME280;54892;47.488;19.026;2023-02-28T15:21:36;101001.41;;;5.99;48.67
68107;BME280;54892;47.488;19.026;2023-02-28T15:24:41;101013.03;;;5.76;49.52
68107;BME280;54892;47.488;19.026;2023-02-28T15:27:47;101010.06;;;6.00;48.67
68107;BME280;54892;47.488;19.026;2023-02-28T15:30:52;101005.78;;;5.85;49.17
68107;BME280;54892;47.488;19.026;2023-02-28T15:33:57;101005.81;;;5.99;48.97
68107;BME280;54892;47.488;19.026;2023-02-28T15:37:02;101005.81;;;5.99;49.43
68107;BME280;54892;47.488;19.026;2023-02-28T15:40:14;100996.50;;;5.76;49.60
68107;BME280;54892;47.488;19.026;2023-02-28T15:43:23;100992.06;;;5.76;49.61
68107;BME280;54892;47.488;19.026;2023-02-28T15:46:27;100991.66;;;5.73;49.77
68107;BME280;54892;47.488;19.026;2023-02-28T15:49:34;100991.41;;;5.61;50.79
68107;BME280;54892;47.488;19.026;2023-02-28T15:52:46;100995.91;;;5.81;50.74
68107;BME280;54892;47.488;19.026;2023-02-28T15:55:53;100992.44;;;5.67;51.60
68107;BME280;54892;47.488;19.026;2023-02-28T15:58:58;100995.66;;;5.62;52.24
68107;BME280;54892;47.488;19.026;2023-02-28T16:02:12;100990.00;;;5.58;52.36
68107;BME280;54892;47.488;19.026;2023-02-28T16:05:18;100997.22;;;5.49;52.76
68107;BME280;54892;47.488;19.026;2023-02-28T16:08:31;100994.59;;;5.43;53.12
68107;BME280;54892;47.488;19.026;2023-02-28T16:11:36;100999.81;;;5.43;53.06
68107;BME280;54892;47.488;19.026;2023-02-28T16:14:41;101008.44;;;5.37;53.23
68107;BME280;54892;47.488;19.026;2023-02-28T16:17:44;101007.22;;;5.32;53.37
68107;BME280;54892;47.488;19.026;2023-02-28T16:20:48;101004.75;;;5.17;53.73
68107;BME280;54892;47.488;19.026;2023-02-28T16:23:53;101011.66;;;5.32;53.52
68107;BME280;54892;47.488;19.026;2023-02-28T16:26:56;101012.56;;;5.11;54.00
68107;BME280;54892;47.488;19.026;2023-02-28T16:30:00;101016.41;;;5.15;54.17
68107;BME280;54892;47.488;19.026;2023-02-28T16:33:03;101016.22;;;5.16;54.26
68107;BME280;54892;47.488;19.026;2023-02-28T16:36:08;101011.19;;;5.22;54.32
68107;BME280;54892;47.488;19.026;2023-02-28T16:39:14;101011.59;;;5.18;54.25